sensor_id;sensor_type;location;lat;lon;timestamp;temperature;humidity
11083;DHT22;5595;50.186;8.468;2022-08-21T00:00:16;18.40;99.90
11083;DHT22;5595;50.186;8.468;2022-08-21T00:02:45;18.30;99.90
11083;DHT22;5595;50.186;8.468;2022-08-21T00:05:12;18.20;99.90
11083;DHT22;5595;50.186;8.468;2022-08-21T00:07:39;18.10;99.90
11083;DHT22;5595;50.186;8.468;2022-08-21T00:10:07;18.00;99.90
11083;DHT22;5595;50.186;8.468;2022-08-21T00:12:34;17.90;99.90
11083;DHT22;5595;50.186;8.468;2022-08-21T00:15:02;17.80;99.90
11083;DHT22;5595;50.186;8.468;2022-08-21T00:17:30;17.70;99.90
11083;DHT22;5595;50.186;8.468;2022-08-21T00:19:57;17.60;99.90
11083;DHT22;5595;50.186;8.468;2022-08-21T00:22:27;17.50;99.90
11083;DHT22;5595;50.186;8.468;2022-08-21T00:24:53;17.40;99.90
11083;DHT22;5595;50.186;8.468;2022-08-21T00:27:20;17.40;99.90
11083;DHT22;5595;50.186;8.468;2022-08-21T00:29:47;17.30;99.90
11083;DHT22;5595;50.186;8.468;2022-08-21T00:32:19;17.20;99.90
11083;DHT22;5595;50.186;8.468;2022-08-21T00:34:48;17.20;99.90
11083;DHT22;5595;50.186;8.468;2022-08-21T00:37:15;17.00;99.90
11083;DHT22;5595;50.186;8.468;2022-08-21T00:39:42;17.00;99.90
11083;DHT22;5595;50.186;8.468;2022-08-21T00:42:09;16.90;99.90
11083;DHT22;5595;50.186;8.468;2022-08-21T00:44:40;16.90;99.90
11083;DHT22;5595;50.186;8.468;2022-08-21T00:47:08;16.80;99.90
11083;DHT22;5595;50.186;8.468;2022-08-21T00:49:35;16.80;99.90
11083;DHT22;5595;50.186;8.468;2022-08-21T00:52:07;16.90;99.90
11083;DHT22;5595;50.186;8.468;2022-08-21T00:54:36;16.90;99.90
11083;DHT22;5595;50.186;8.468;2022-08-21T00:57:10;16.80;99.90
11083;DHT22;5595;50.186;8.468;2022-08-21T00:59:40;16.90;99.90
11083;DHT22;5595;50.186;8.468;2022-08-21T01:02:10;16.90;99.90
11083;DHT22;5595;50.186;8.468;2022-08-21T01:04:38;16.80;99.90
11083;DHT22;5595;50.186;8.468;2022-08-21T01:07:06;16.80;99.90
11083;DHT22;5595;50.186;8.468;2022-08-21T01:09:33;16.80;99.90
11083;DHT22;5595;50.186;8.468;2022-08-21T01:12:01;16.70;99.90
11083;DHT22;5595;50.186;8.468;2022-08-21T01:14:28;16.80;99.90
11083;DHT22;5595;50.186;8.468;2022-08-21T01:16:56;16.80;99.90
11083;DHT22;5595;50.186;8.468;2022-08-21T01:19:29;16.80;99.90
11083;DHT22;5595;50.186;8.468;2022-08-21T01:21:57;16.80;99.90
11083;DHT22;5595;50.186;8.468;2022-08-21T01:24:25;16.80;99.90
11083;DHT22;5595;50.186;8.468;2022-08-21T01:26:52;16.80;99.90
11083;DHT22;5595;50.186;8.468;2022-08-21T01:29:26;16.80;99.90
11083;DHT22;5595;50.186;8.468;2022-08-21T01:31:56;16.70;99.90
11083;DHT22;5595;50.186;8.468;2022-08-21T01:34:23;16.70;99.90
11083;DHT22;5595;50.186;8.468;2022-08-21T01:36:51;16.70;99.90
11083;DHT22;5595;50.186;8.468;2022-08-21T01:39:19;16.70;99.90
11083;DHT22;5595;50.186;8.468;2022-08-21T01:41:46;16.70;99.90
11083;DHT22;5595;50.186;8.468;2022-08-21T01:44:13;16.70;99.90
11083;DHT22;5595;50.186;8.468;2022-08-21T01:46:40;16.70;99.90
11083;DHT22;5595;50.186;8.468;2022-08-21T01:49:07;16.60;99.90
11083;DHT22;5595;50.186;8.468;2022-08-21T01:51:34;16.50;99.90
11083;DHT22;5595;50.186;8.468;2022-08-21T01:54:01;16.50;99.90
11083;DHT22;5595;50.186;8.468;2022-08-21T01:56:35;16.50;99.90
11083;DHT22;5595;50.186;8.468;2022-08-21T01:59:03;16.50;99.90
11083;DHT22;5595;50.186;8.468;2022-08-21T02:01:30;16.50;99.90
11083;DHT22;5595;50.186;8.468;2022-08-21T02:03:57;16.50;99.90
11083;DHT22;5595;50.186;8.468;2022-08-21T02:06:25;16.50;99.90
11083;DHT22;5595;50.186;8.468;2022-08-21T02:08:53;16.50;99.90
11083;DHT22;5595;50.186;8.468;2022-08-21T02:11:19;16.40;99.90
11083;DHT22;5595;50.186;8.468;2022-08-21T02:13:48;16.40;99.90
11083;DHT22;5595;50.186;8.468;2022-08-21T02:16:15;16.40;99.90
11083;DHT22;5595;50.186;8.468;2022-08-21T02:18:42;16.30;99.90
11083;DHT22;5595;50.186;8.468;2022-08-21T02:21:09;16.30;99.90
11083;DHT22;5595;50.186;8.468;2022-08-21T02:23:36;16.30;99.90
11083;DHT22;5595;50.186;8.468;2022-08-21T02:26:05;16.30;99.90
11083;DHT22;5595;50.186;8.468;2022-08-21T02:28:34;16.30;99.90
11083;DHT22;5595;50.186;8.468;2022-08-21T02:31:03;16.30;99.90
11083;DHT22;5595;50.186;8.468;2022-08-21T02:33:30;16.20;99.90
11083;DHT22;5595;50.186;8.468;2022-08-21T02:35:59;16.30;99.90
11083;DHT22;5595;50.186;8.468;2022-08-21T02:38:28;16.20;99.90
11083;DHT22;5595;50.186;8.468;2022-08-21T02:40:56;16.20;99.90
11083;DHT22;5595;50.186;8.468;2022-08-21T02:43:25;16.10;99.90
11083;DHT22;5595;50.186;8.468;2022-08-21T02:45:52;16.10;99.90
11083;DHT22;5595;50.186;8.468;2022-08-21T02:48:25;16.10;99.90
11083;DHT22;5595;50.186;8.468;2022-08-21T02:50:55;16.00;99.90
11083;DHT22;5595;50.186;8.468;2022-08-21T02:53:23;16.00;99.90
11083;DHT22;5595;50.186;8.468;2022-08-21T02:55:53;16.00;99.90
11083;DHT22;5595;50.186;8.468;2022-08-21T02:58:23;16.00;99.90
11083;DHT22;5595;50.186;8.468;2022-08-21T03:00:51;15.90;99.90
11083;DHT22;5595;50.186;8.468;2022-08-21T03:03:18;15.90;99.90
11083;DHT22;5595;50.186;8.468;2022-08-21T03:05:48;15.90;99.90
11083;DHT22;5595;50.186;8.468;2022-08-21T03:08:15;15.80;99.90
11083;DHT22;5595;50.186;8.468;2022-08-21T03:10:44;15.80;99.90
11083;DHT22;5595;50.186;8.468;2022-08-21T03:13:13;15.80;99.90
11083;DHT22;5595;50.186;8.468;2022-08-21T03:15:41;15.80;99.90
11083;DHT22;5595;50.186;8.468;2022-08-21T03:18:08;15.70;99.90
11083;DHT22;5595;50.186;8.468;2022-08-21T03:20:37;15.70;99.90
11083;DHT22;5595;50.186;8.468;2022-08-21T03:23:06;15.70;99.90
11083;DHT22;5595;50.186;8.468;2022-08-21T03:25:34;15.70;99.90
11083;DHT22;5595;50.186;8.468;2022-08-21T03:28:02;15.70;99.90
11083;DHT22;5595;50.186;8.468;2022-08-21T03:30:30;15.70;99.90
11083;DHT22;5595;50.186;8.468;2022-08-21T03:32:57;15.70;99.90
11083;DHT22;5595;50.186;8.468;2022-08-21T03:35:25;15.60;99.90
11083;DHT22;5595;50.186;8.468;2022-08-21T03:37:53;15.60;99.90
11083;DHT22;5595;50.186;8.468;2022-08-21T03:40:22;15.60;99.90
11083;DHT22;5595;50.186;8.468;2022-08-21T03:42:50;15.50;99.90
11083;DHT22;5595;50.186;8.468;2022-08-21T03:45:18;15.50;99.90
11083;DHT22;5595;50.186;8.468;2022-08-21T03:47:53;15.50;99.90
11083;DHT22;5595;50.186;8.468;2022-08-21T03:50:21;15.50;99.90
11083;DHT22;5595;50.186;8.468;2022-08-21T03:52:49;15.50;99.90
11083;DHT22;5595;50.186;8.468;2022-08-21T03:55:16;15.50;99.90
11083;DHT22;5595;50.186;8.468;2022-08-21T03:57:44;15.40;99.90
11083;DHT22;5595;50.186;8.468;2022-08-21T04:00:13;15.40;99.90
11083;DHT22;5595;50.186;8.468;2022-08-21T04:02:40;15.40;99.90
11083;DHT22;5595;50.186;8.468;2022-08-21T04:05:09;15.40;99.90
11083;DHT22;5595;50.186;8.468;2022-08-21T04:07:39;15.40;99.90
11083;DHT22;5595;50.186;8.468;2022-08-21T04:10:07;15.40;99.90
11083;DHT22;5595;50.186;8.468;2022-08-21T04:12:34;15.40;99.90
11083;DHT22;5595;50.186;8.468;2022-08-21T04:15:04;15.40;99.90
11083;DHT22;5595;50.186;8.468;2022-08-21T04:17:31;15.30;99.90
11083;DHT22;5595;50.186;8.468;2022-08-21T04:19:58;15.30;99.90
11083;DHT22;5595;50.186;8.468;2022-08-21T04:22:25;15.30;99.90
11083;DHT22;5595;50.186;8.468;2022-08-21T04:24:52;15.30;99.90
11083;DHT22;5595;50.186;8.468;2022-08-21T04:27:19;15.30;99.90
11083;DHT22;5595;50.186;8.468;2022-08-21T04:29:46;15.30;99.90
11083;DHT22;5595;50.186;8.468;2022-08-21T04:32:21;15.30;99.90
11083;DHT22;5595;50.186;8.468;2022-08-21T04:34:48;15.30;99.90
11083;DHT22;5595;50.186;8.468;2022-08-21T04:37:15;15.20;99.90
11083;DHT22;5595;50.186;8.468;2022-08-21T04:39:42;15.20;99.90
11083;DHT22;5595;50.186;8.468;2022-08-21T04:42:09;15.20;99.90
11083;DHT22;5595;50.186;8.468;2022-08-21T04:44:36;15.30;99.90
11083;DHT22;5595;50.186;8.468;2022-08-21T04:47:03;15.40;99.90
11083;DHT22;5595;50.186;8.468;2022-08-21T04:49:32;15.40;99.90
11083;DHT22;5595;50.186;8.468;2022-08-21T04:52:00;15.40;99.90
11083;DHT22;5595;50.186;8.468;2022-08-21T04:54:28;15.50;99.90
11083;DHT22;5595;50.186;8.468;2022-08-21T04:56:57;15.50;99.90
11083;DHT22;5595;50.186;8.468;2022-08-21T04:59:33;15.60;99.90
11083;DHT22;5595;50.186;8.468;2022-08-21T05:02:02;15.50;99.90
11083;DHT22;5595;50.186;8.468;2022-08-21T05:04:32;15.50;99.90
11083;DHT22;5595;50.186;8.468;2022-08-21T05:07:02;15.50;99.90
11083;DHT22;5595;50.186;8.468;2022-08-21T05:09:32;15.50;99.90
11083;DHT22;5595;50.186;8.468;2022-08-21T05:12:01;15.60;99.90
11083;DHT22;5595;50.186;8.468;2022-08-21T05:14:28;15.60;99.90
11083;DHT22;5595;50.186;8.468;2022-08-21T05:16:55;15.70;99.90
11083;DHT22;5595;50.186;8.468;2022-08-21T05:19:22;15.70;99.90
11083;DHT22;5595;50.186;8.468;2022-08-21T05:21:50;15.70;99.90
11083;DHT22;5595;50.186;8.468;2022-08-21T05:24:17;15.70;99.90
11083;DHT22;5595;50.186;8.468;2022-08-21T05:26:44;15.70;99.90
11083;DHT22;5595;50.186;8.468;2022-08-21T05:29:12;15.80;99.90
11083;DHT22;5595;50.186;8.468;2022-08-21T05:31:39;15.80;99.90
11083;DHT22;5595;50.186;8.468;2022-08-21T05:34:06;15.80;99.90
11083;DHT22;5595;50.186;8.468;2022-08-21T05:36:34;15.90;99.90
11083;DHT22;5595;50.186;8.468;2022-08-21T05:39:03;15.90;99.90
11083;DHT22;5595;50.186;8.468;2022-08-21T05:41:30;15.90;99.90
11083;DHT22;5595;50.186;8.468;2022-08-21T05:43:57;16.00;99.90
11083;DHT22;5595;50.186;8.468;2022-08-21T05:46:23;15.90;99.90
11083;DHT22;5595;50.186;8.468;2022-08-21T05:48:50;16.00;99.90
11083;DHT22;5595;50.186;8.468;2022-08-21T05:51:17;16.00;99.90
11083;DHT22;5595;50.186;8.468;2022-08-21T05:53:45;16.10;99.90
11083;DHT22;5595;50.186;8.468;2022-08-21T05:56:13;16.30;99.90
11083;DHT22;5595;50.186;8.468;2022-08-21T05:58:44;16.50;99.90
11083;DHT22;5595;50.186;8.468;2022-08-21T06:01:11;16.70;99.90
11083;DHT22;5595;50.186;8.468;2022-08-21T06:03:39;16.80;99.90
11083;DHT22;5595;50.186;8.468;2022-08-21T06:06:07;17.00;99.90
11083;DHT22;5595;50.186;8.468;2022-08-21T06:08:35;17.20;99.90
11083;DHT22;5595;50.186;8.468;2022-08-21T06:11:03;17.30;99.90
11083;DHT22;5595;50.186;8.468;2022-08-21T06:13:33;17.40;99.90
11083;DHT22;5595;50.186;8.468;2022-08-21T06:16:03;17.60;99.90
11083;DHT22;5595;50.186;8.468;2022-08-21T06:18:30;17.80;99.90
11083;DHT22;5595;50.186;8.468;2022-08-21T06:21:00;17.90;99.90
11083;DHT22;5595;50.186;8.468;2022-08-21T06:23:27;18.00;99.90
11083;DHT22;5595;50.186;8.468;2022-08-21T06:25:54;18.10;99.90
11083;DHT22;5595;50.186;8.468;2022-08-21T06:28:21;18.20;99.90
11083;DHT22;5595;50.186;8.468;2022-08-21T06:30:49;18.30;99.90
11083;DHT22;5595;50.186;8.468;2022-08-21T06:33:16;18.40;99.90
11083;DHT22;5595;50.186;8.468;2022-08-21T06:35:43;18.60;99.90
11083;DHT22;5595;50.186;8.468;2022-08-21T06:38:10;18.80;99.90
11083;DHT22;5595;50.186;8.468;2022-08-21T06:40:40;19.00;99.90
11083;DHT22;5595;50.186;8.468;2022-08-21T06:43:08;19.20;99.90
11083;DHT22;5595;50.186;8.468;2022-08-21T06:45:36;19.40;99.90
11083;DHT22;5595;50.186;8.468;2022-08-21T06:48:05;19.70;99.90
11083;DHT22;5595;50.186;8.468;2022-08-21T06:50:33;19.90;99.90
11083;DHT22;5595;50.186;8.468;2022-08-21T06:53:02;20.20;99.90
11083;DHT22;5595;50.186;8.468;2022-08-21T06:55:29;20.50;99.90
11083;DHT22;5595;50.186;8.468;2022-08-21T06:57:56;20.60;99.90
11083;DHT22;5595;50.186;8.468;2022-08-21T07:00:23;20.80;99.90
11083;DHT22;5595;50.186;8.468;2022-08-21T07:02:50;20.90;99.90
11083;DHT22;5595;50.186;8.468;2022-08-21T07:05:19;21.10;99.90
11083;DHT22;5595;50.186;8.468;2022-08-21T07:07:46;21.30;99.90
11083;DHT22;5595;50.186;8.468;2022-08-21T07:10:14;21.50;99.90
11083;DHT22;5595;50.186;8.468;2022-08-21T07:12:41;21.60;99.90
11083;DHT22;5595;50.186;8.468;2022-08-21T07:15:09;21.80;99.90
11083;DHT22;5595;50.186;8.468;2022-08-21T07:17:36;21.90;99.90
11083;DHT22;5595;50.186;8.468;2022-08-21T07:20:04;22.00;99.90
11083;DHT22;5595;50.186;8.468;2022-08-21T07:22:33;22.10;99.90
11083;DHT22;5595;50.186;8.468;2022-08-21T07:25:02;22.30;99.90
11083;DHT22;5595;50.186;8.468;2022-08-21T07:27:29;22.50;99.90
11083;DHT22;5595;50.186;8.468;2022-08-21T07:29:57;22.70;99.90
11083;DHT22;5595;50.186;8.468;2022-08-21T07:32:24;22.70;99.90
11083;DHT22;5595;50.186;8.468;2022-08-21T07:34:51;22.80;99.90
11083;DHT22;5595;50.186;8.468;2022-08-21T07:37:17;22.90;99.90
11083;DHT22;5595;50.186;8.468;2022-08-21T07:39:46;23.10;99.90
11083;DHT22;5595;50.186;8.468;2022-08-21T07:42:14;23.20;99.90
11083;DHT22;5595;50.186;8.468;2022-08-21T07:44:41;23.30;99.90
11083;DHT22;5595;50.186;8.468;2022-08-21T07:47:08;23.40;99.90
11083;DHT22;5595;50.186;8.468;2022-08-21T07:49:35;23.50;99.90
11083;DHT22;5595;50.186;8.468;2022-08-21T07:52:03;23.70;99.90
11083;DHT22;5595;50.186;8.468;2022-08-21T07:54:30;23.80;99.90
11083;DHT22;5595;50.186;8.468;2022-08-21T07:56:58;23.90;99.90
11083;DHT22;5595;50.186;8.468;2022-08-21T07:59:28;23.90;99.90
11083;DHT22;5595;50.186;8.468;2022-08-21T08:01:55;24.00;99.90
11083;DHT22;5595;50.186;8.468;2022-08-21T08:04:22;24.00;99.90
11083;DHT22;5595;50.186;8.468;2022-08-21T08:06:49;24.10;99.90
11083;DHT22;5595;50.186;8.468;2022-08-21T08:09:16;24.20;99.90
11083;DHT22;5595;50.186;8.468;2022-08-21T08:11:43;24.30;99.90
11083;DHT22;5595;50.186;8.468;2022-08-21T08:14:12;24.30;99.90
11083;DHT22;5595;50.186;8.468;2022-08-21T08:16:39;24.20;99.90
11083;DHT22;5595;50.186;8.468;2022-08-21T08:19:06;24.20;99.90
11083;DHT22;5595;50.186;8.468;2022-08-21T08:21:35;24.00;99.90
11083;DHT22;5595;50.186;8.468;2022-08-21T08:24:06;23.80;99.90
11083;DHT22;5595;50.186;8.468;2022-08-21T08:26:33;23.90;99.90
11083;DHT22;5595;50.186;8.468;2022-08-21T08:29:00;23.80;99.20
11083;DHT22;5595;50.186;8.468;2022-08-21T08:31:28;23.90;99.40
11083;DHT22;5595;50.186;8.468;2022-08-21T08:33:55;24.10;99.00
11083;DHT22;5595;50.186;8.468;2022-08-21T08:36:31;24.20;98.00
11083;DHT22;5595;50.186;8.468;2022-08-21T08:38:59;24.00;96.50
11083;DHT22;5595;50.186;8.468;2022-08-21T08:41:27;23.70;97.10
11083;DHT22;5595;50.186;8.468;2022-08-21T08:43:59;23.80;97.20
11083;DHT22;5595;50.186;8.468;2022-08-21T08:46:35;24.00;96.80
11083;DHT22;5595;50.186;8.468;2022-08-21T08:49:07;24.20;96.50
11083;DHT22;5595;50.186;8.468;2022-08-21T08:51:40;24.30;96.30
11083;DHT22;5595;50.186;8.468;2022-08-21T08:54:11;24.50;95.60
11083;DHT22;5595;50.186;8.468;2022-08-21T08:56:39;24.40;94.20
11083;DHT22;5595;50.186;8.468;2022-08-21T08:59:12;24.30;94.20
11083;DHT22;5595;50.186;8.468;2022-08-21T09:01:42;24.40;94.20
11083;DHT22;5595;50.186;8.468;2022-08-21T09:04:10;24.30;93.40
11083;DHT22;5595;50.186;8.468;2022-08-21T09:06:46;24.20;92.40
11083;DHT22;5595;50.186;8.468;2022-08-21T09:09:25;24.10;92.10
11083;DHT22;5595;50.186;8.468;2022-08-21T09:11:59;24.10;91.90
11083;DHT22;5595;50.186;8.468;2022-08-21T09:14:40;24.20;91.80
11083;DHT22;5595;50.186;8.468;2022-08-21T09:17:19;24.40;91.60
11083;DHT22;5595;50.186;8.468;2022-08-21T09:19:58;24.40;91.00
11083;DHT22;5595;50.186;8.468;2022-08-21T09:22:36;24.30;91.30
11083;DHT22;5595;50.186;8.468;2022-08-21T09:25:11;24.40;91.90
11083;DHT22;5595;50.186;8.468;2022-08-21T09:27:39;24.60;91.70
11083;DHT22;5595;50.186;8.468;2022-08-21T09:30:08;24.80;91.70
11083;DHT22;5595;50.186;8.468;2022-08-21T09:32:39;25.00;91.10
11083;DHT22;5595;50.186;8.468;2022-08-21T09:35:11;25.10;90.70
11083;DHT22;5595;50.186;8.468;2022-08-21T09:37:49;25.10;89.80
11083;DHT22;5595;50.186;8.468;2022-08-21T09:40:33;25.10;89.30
11083;DHT22;5595;50.186;8.468;2022-08-21T09:43:02;25.10;89.70
11083;DHT22;5595;50.186;8.468;2022-08-21T09:45:30;25.10;89.70
11083;DHT22;5595;50.186;8.468;2022-08-21T09:48:10;25.30;89.50
11083;DHT22;5595;50.186;8.468;2022-08-21T09:50:37;25.40;87.90
11083;DHT22;5595;50.186;8.468;2022-08-21T09:53:13;25.50;87.50
11083;DHT22;5595;50.186;8.468;2022-08-21T09:55:49;25.50;85.80
11083;DHT22;5595;50.186;8.468;2022-08-21T09:58:35;25.10;86.70
11083;DHT22;5595;50.186;8.468;2022-08-21T10:01:11;25.10;87.70
11083;DHT22;5595;50.186;8.468;2022-08-21T10:03:40;25.30;87.70
11083;DHT22;5595;50.186;8.468;2022-08-21T10:06:20;25.50;86.30
11083;DHT22;5595;50.186;8.468;2022-08-21T10:08:50;25.50;84.80
11083;DHT22;5595;50.186;8.468;2022-08-21T10:11:17;25.30;84.90
11083;DHT22;5595;50.186;8.468;2022-08-21T10:13:51;25.20;85.60
11083;DHT22;5595;50.186;8.468;2022-08-21T10:16:30;25.00;84.60
11083;DHT22;5595;50.186;8.468;2022-08-21T10:19:11;24.80;85.20
11083;DHT22;5595;50.186;8.468;2022-08-21T10:21:51;24.80;85.70
11083;DHT22;5595;50.186;8.468;2022-08-21T10:24:24;25.10;85.40
11083;DHT22;5595;50.186;8.468;2022-08-21T10:27:01;25.20;84.50
11083;DHT22;5595;50.186;8.468;2022-08-21T10:29:45;25.30;83.20
11083;DHT22;5595;50.186;8.468;2022-08-21T10:32:26;25.50;84.30
11083;DHT22;5595;50.186;8.468;2022-08-21T10:35:05;25.60;82.60
11083;DHT22;5595;50.186;8.468;2022-08-21T10:37:45;25.70;82.10
11083;DHT22;5595;50.186;8.468;2022-08-21T10:40:24;25.70;80.40
11083;DHT22;5595;50.186;8.468;2022-08-21T10:43:03;25.40;79.70
11083;DHT22;5595;50.186;8.468;2022-08-21T10:45:42;25.20;80.90
11083;DHT22;5595;50.186;8.468;2022-08-21T10:48:19;25.20;82.00
11083;DHT22;5595;50.186;8.468;2022-08-21T10:50:57;25.40;81.70
11083;DHT22;5595;50.186;8.468;2022-08-21T10:53:40;25.60;81.10
11083;DHT22;5595;50.186;8.468;2022-08-21T10:56:15;25.60;78.60
11083;DHT22;5595;50.186;8.468;2022-08-21T10:58:48;25.60;79.10
11083;DHT22;5595;50.186;8.468;2022-08-21T11:01:20;25.70;80.30
11083;DHT22;5595;50.186;8.468;2022-08-21T11:03:53;25.80;79.50
11083;DHT22;5595;50.186;8.468;2022-08-21T11:06:29;26.00;79.60
11083;DHT22;5595;50.186;8.468;2022-08-21T11:09:06;26.00;78.00
11083;DHT22;5595;50.186;8.468;2022-08-21T11:11:38;26.00;77.70
11083;DHT22;5595;50.186;8.468;2022-08-21T11:14:13;26.10;77.60
11083;DHT22;5595;50.186;8.468;2022-08-21T11:16:46;26.00;76.20
11083;DHT22;5595;50.186;8.468;2022-08-21T11:19:19;25.80;77.10
11083;DHT22;5595;50.186;8.468;2022-08-21T11:21:54;25.80;77.90
11083;DHT22;5595;50.186;8.468;2022-08-21T11:24:29;25.80;77.70
11083;DHT22;5595;50.186;8.468;2022-08-21T11:27:01;25.90;77.60
11083;DHT22;5595;50.186;8.468;2022-08-21T11:29:34;26.00;76.80
11083;DHT22;5595;50.186;8.468;2022-08-21T11:32:24;26.00;75.70
11083;DHT22;5595;50.186;8.468;2022-08-21T11:35:01;26.00;75.80
11083;DHT22;5595;50.186;8.468;2022-08-21T11:37:45;26.00;76.00
11083;DHT22;5595;50.186;8.468;2022-08-21T11:40:24;25.90;74.60
11083;DHT22;5595;50.186;8.468;2022-08-21T11:43:07;25.80;74.40
11083;DHT22;5595;50.186;8.468;2022-08-21T11:45:42;25.70;74.40
11083;DHT22;5595;50.186;8.468;2022-08-21T11:48:27;25.70;74.30
11083;DHT22;5595;50.186;8.468;2022-08-21T11:50:58;25.80;74.30
11083;DHT22;5595;50.186;8.468;2022-08-21T11:53:32;26.00;72.50
11083;DHT22;5595;50.186;8.468;2022-08-21T11:56:05;26.00;72.20
11083;DHT22;5595;50.186;8.468;2022-08-21T11:58:37;26.00;71.50
11083;DHT22;5595;50.186;8.468;2022-08-21T12:01:11;25.90;70.90
11083;DHT22;5595;50.186;8.468;2022-08-21T12:03:41;25.80;71.20
11083;DHT22;5595;50.186;8.468;2022-08-21T12:06:11;25.80;71.80
11083;DHT22;5595;50.186;8.468;2022-08-21T12:08:42;25.80;71.70
11083;DHT22;5595;50.186;8.468;2022-08-21T12:11:23;25.80;71.80
11083;DHT22;5595;50.186;8.468;2022-08-21T12:13:55;26.10;72.70
11083;DHT22;5595;50.186;8.468;2022-08-21T12:16:30;26.00;70.90
11083;DHT22;5595;50.186;8.468;2022-08-21T12:19:06;26.00;68.40
11083;DHT22;5595;50.186;8.468;2022-08-21T12:21:49;26.00;69.70
11083;DHT22;5595;50.186;8.468;2022-08-21T12:24:20;25.90;69.80
11083;DHT22;5595;50.186;8.468;2022-08-21T12:26:59;26.00;70.00
11083;DHT22;5595;50.186;8.468;2022-08-21T12:29:29;26.00;69.70
11083;DHT22;5595;50.186;8.468;2022-08-21T12:31:59;26.20;68.30
11083;DHT22;5595;50.186;8.468;2022-08-21T12:34:33;26.20;68.20
11083;DHT22;5595;50.186;8.468;2022-08-21T12:37:04;26.40;68.30
11083;DHT22;5595;50.186;8.468;2022-08-21T12:39:36;26.50;68.60
11083;DHT22;5595;50.186;8.468;2022-08-21T12:42:15;26.70;68.30
11083;DHT22;5595;50.186;8.468;2022-08-21T12:44:45;26.90;67.90
11083;DHT22;5595;50.186;8.468;2022-08-21T12:47:16;27.00;66.60
11083;DHT22;5595;50.186;8.468;2022-08-21T12:49:56;27.10;65.50
11083;DHT22;5595;50.186;8.468;2022-08-21T12:52:33;27.20;64.80
11083;DHT22;5595;50.186;8.468;2022-08-21T12:55:03;27.30;64.50
11083;DHT22;5595;50.186;8.468;2022-08-21T12:57:36;27.40;63.80
11083;DHT22;5595;50.186;8.468;2022-08-21T13:00:07;27.50;63.70
11083;DHT22;5595;50.186;8.468;2022-08-21T13:02:39;27.50;62.90
11083;DHT22;5595;50.186;8.468;2022-08-21T13:05:18;27.60;62.70
11083;DHT22;5595;50.186;8.468;2022-08-21T13:07:48;27.50;61.90
11083;DHT22;5595;50.186;8.468;2022-08-21T13:10:20;27.50;60.60
11083;DHT22;5595;50.186;8.468;2022-08-21T13:12:49;27.40;60.70
11083;DHT22;5595;50.186;8.468;2022-08-21T13:15:25;27.30;61.00
11083;DHT22;5595;50.186;8.468;2022-08-21T13:17:52;27.40;60.90
11083;DHT22;5595;50.186;8.468;2022-08-21T13:20:22;27.40;60.60
11083;DHT22;5595;50.186;8.468;2022-08-21T13:22:51;27.30;59.50
11083;DHT22;5595;50.186;8.468;2022-08-21T13:25:21;27.30;60.60
11083;DHT22;5595;50.186;8.468;2022-08-21T13:27:59;27.30;60.10
11083;DHT22;5595;50.186;8.468;2022-08-21T13:30:27;27.40;59.70
11083;DHT22;5595;50.186;8.468;2022-08-21T13:32:57;27.30;58.70
11083;DHT22;5595;50.186;8.468;2022-08-21T13:35:28;26.90;58.20
11083;DHT22;5595;50.186;8.468;2022-08-21T13:37:57;26.70;59.20
11083;DHT22;5595;50.186;8.468;2022-08-21T13:40:29;26.60;58.80
11083;DHT22;5595;50.186;8.468;2022-08-21T13:42:57;26.40;59.50
11083;DHT22;5595;50.186;8.468;2022-08-21T13:45:31;26.40;59.30
11083;DHT22;5595;50.186;8.468;2022-08-21T13:48:02;26.50;58.90
11083;DHT22;5595;50.186;8.468;2022-08-21T13:50:30;26.50;59.10
11083;DHT22;5595;50.186;8.468;2022-08-21T13:55:44;26.60;57.40
11083;DHT22;5595;50.186;8.468;2022-08-21T13:58:11;26.40;57.70
11083;DHT22;5595;50.186;8.468;2022-08-21T14:00:45;26.50;58.10
11083;DHT22;5595;50.186;8.468;2022-08-21T14:03:27;26.60;58.30
11083;DHT22;5595;50.186;8.468;2022-08-21T14:05:57;26.70;58.40
11083;DHT22;5595;50.186;8.468;2022-08-21T14:08:29;26.60;57.60
11083;DHT22;5595;50.186;8.468;2022-08-21T14:10:59;26.60;58.00
11083;DHT22;5595;50.186;8.468;2022-08-21T14:13:36;26.60;58.00
11083;DHT22;5595;50.186;8.468;2022-08-21T14:16:13;26.70;58.00
11083;DHT22;5595;50.186;8.468;2022-08-21T14:18:45;26.70;58.40
11083;DHT22;5595;50.186;8.468;2022-08-21T14:21:13;26.70;58.40
11083;DHT22;5595;50.186;8.468;2022-08-21T14:23:40;26.60;57.30
11083;DHT22;5595;50.186;8.468;2022-08-21T14:26:12;26.60;57.90
11083;DHT22;5595;50.186;8.468;2022-08-21T14:28:43;26.60;57.20
11083;DHT22;5595;50.186;8.468;2022-08-21T14:31:14;26.50;57.90
11083;DHT22;5595;50.186;8.468;2022-08-21T14:33:41;26.50;57.90
11083;DHT22;5595;50.186;8.468;2022-08-21T14:36:09;26.60;57.20
11083;DHT22;5595;50.186;8.468;2022-08-21T14:38:37;26.60;56.90
11083;DHT22;5595;50.186;8.468;2022-08-21T14:41:13;26.60;56.20
11083;DHT22;5595;50.186;8.468;2022-08-21T14:43:42;26.60;56.20
11083;DHT22;5595;50.186;8.468;2022-08-21T14:46:11;26.40;56.50
11083;DHT22;5595;50.186;8.468;2022-08-21T14:48:38;26.40;56.50
11083;DHT22;5595;50.186;8.468;2022-08-21T14:51:05;26.40;56.30
11083;DHT22;5595;50.186;8.468;2022-08-21T14:53:33;26.50;56.30
11083;DHT22;5595;50.186;8.468;2022-08-21T14:56:00;26.50;56.00
11083;DHT22;5595;50.186;8.468;2022-08-21T14:58:37;26.40;55.80
11083;DHT22;5595;50.186;8.468;2022-08-21T15:01:06;26.40;55.80
11083;DHT22;5595;50.186;8.468;2022-08-21T15:03:35;26.40;56.30
11083;DHT22;5595;50.186;8.468;2022-08-21T15:06:03;26.40;57.40
11083;DHT22;5595;50.186;8.468;2022-08-21T15:08:31;26.30;56.80
11083;DHT22;5595;50.186;8.468;2022-08-21T15:10:59;26.30;56.00
11083;DHT22;5595;50.186;8.468;2022-08-21T15:13:27;26.30;55.70
11083;DHT22;5595;50.186;8.468;2022-08-21T15:15:56;26.30;55.90
11083;DHT22;5595;50.186;8.468;2022-08-21T15:18:25;26.20;55.90
11083;DHT22;5595;50.186;8.468;2022-08-21T15:20:52;26.30;56.50
11083;DHT22;5595;50.186;8.468;2022-08-21T15:23:22;26.20;56.30
11083;DHT22;5595;50.186;8.468;2022-08-21T15:25:50;26.30;55.70
11083;DHT22;5595;50.186;8.468;2022-08-21T15:28:19;26.30;55.70
11083;DHT22;5595;50.186;8.468;2022-08-21T15:30:51;26.20;56.00
11083;DHT22;5595;50.186;8.468;2022-08-21T15:33:19;26.20;56.90
11083;DHT22;5595;50.186;8.468;2022-08-21T15:35:47;26.10;57.40
11083;DHT22;5595;50.186;8.468;2022-08-21T15:38:15;26.10;56.50
11083;DHT22;5595;50.186;8.468;2022-08-21T15:40:45;26.10;56.40
11083;DHT22;5595;50.186;8.468;2022-08-21T15:43:26;26.00;56.20
11083;DHT22;5595;50.186;8.468;2022-08-21T15:45:54;26.00;55.60
11083;DHT22;5595;50.186;8.468;2022-08-21T15:48:23;26.00;56.30
11083;DHT22;5595;50.186;8.468;2022-08-21T15:50:50;26.00;55.80
11083;DHT22;5595;50.186;8.468;2022-08-21T15:53:17;26.00;55.30
11083;DHT22;5595;50.186;8.468;2022-08-21T15:55:44;26.00;54.70
11083;DHT22;5595;50.186;8.468;2022-08-21T15:58:13;26.00;54.30
11083;DHT22;5595;50.186;8.468;2022-08-21T16:00:40;26.00;55.80
11083;DHT22;5595;50.186;8.468;2022-08-21T16:03:11;25.90;55.40
11083;DHT22;5595;50.186;8.468;2022-08-21T16:05:42;25.90;56.00